sensor_id;sensor_type;location;lat;lon;timestamp;P1;durP1;ratioP1;P2;durP2;ratioP2
50267;SDS011;36153;50.960;6.220;2023-02-01T00:02:54;14.60;;;2.88;;
50267;SDS011;36153;50.960;6.220;2023-02-01T00:05:56;10.18;;;2.60;;
50267;SDS011;36153;50.960;6.220;2023-02-01T00:08:59;12.93;;;2.90;;
50267;SDS011;36153;50.960;6.220;2023-02-01T00:12:01;8.73;;;2.50;;
50267;SDS011;36153;50.960;6.220;2023-02-01T00:15:04;6.47;;;2.17;;
50267;SDS011;36153;50.960;6.220;2023-02-01T00:18:06;9.57;;;3.17;;
50267;SDS011;36153;50.960;6.220;2023-02-01T00:21:07;12.13;;;2.67;;
50267;SDS011;36153;50.960;6.220;2023-02-01T00:24:11;11.73;;;2.75;;
50267;SDS011;36153;50.960;6.220;2023-02-01T00:27:13;14.93;;;3.17;;
50267;SDS011;36153;50.960;6.220;2023-02-01T00:30:18;16.23;;;3.05;;
50267;SDS011;36153;50.960;6.220;2023-02-01T00:33:19;9.55;;;2.22;;
50267;SDS011;36153;50.960;6.220;2023-02-01T00:36:21;10.27;;;2.60;;
50267;SDS011;36153;50.960;6.220;2023-02-01T00:39:22;9.25;;;2.67;;
50267;SDS011;36153;50.960;6.220;2023-02-01T00:42:23;11.88;;;2.80;;
50267;SDS011;36153;50.960;6.220;2023-02-01T00:45:24;12.18;;;2.83;;
50267;SDS011;36153;50.960;6.220;2023-02-01T00:48:24;9.27;;;2.55;;
50267;SDS011;36153;50.960;6.220;2023-02-01T00:51:27;10.27;;;3.20;;
50267;SDS011;36153;50.960;6.220;2023-02-01T00:54:28;8.85;;;2.67;;
50267;SDS011;36153;50.960;6.220;2023-02-01T00:57:29;9.82;;;2.75;;
50267;SDS011;36153;50.960;6.220;2023-02-01T01:00:30;10.88;;;3.08;;
50267;SDS011;36153;50.960;6.220;2023-02-01T01:03:31;9.18;;;2.78;;
50267;SDS011;36153;50.960;6.220;2023-02-01T01:06:36;13.85;;;2.95;;
50267;SDS011;36153;50.960;6.220;2023-02-01T01:09:37;12.60;;;3.92;;
50267;SDS011;36153;50.960;6.220;2023-02-01T01:12:37;10.45;;;3.58;;
50267;SDS011;36153;50.960;6.220;2023-02-01T01:15:38;12.13;;;3.65;;
50267;SDS011;36153;50.960;6.220;2023-02-01T01:18:39;22.88;;;4.00;;
50267;SDS011;36153;50.960;6.220;2023-02-01T01:21:40;15.98;;;3.72;;
50267;SDS011;36153;50.960;6.220;2023-02-01T01:24:41;15.07;;;4.80;;
50267;SDS011;36153;50.960;6.220;2023-02-01T01:27:41;23.95;;;4.63;;
50267;SDS011;36153;50.960;6.220;2023-02-01T01:30:41;15.57;;;4.63;;
50267;SDS011;36153;50.960;6.220;2023-02-01T01:33:42;19.50;;;5.28;;
50267;SDS011;36153;50.960;6.220;2023-02-01T01:36:43;17.38;;;3.97;;
50267;SDS011;36153;50.960;6.220;2023-02-01T01:39:44;15.65;;;4.55;;
50267;SDS011;36153;50.960;6.220;2023-02-01T01:42:44;17.52;;;4.90;;
50267;SDS011;36153;50.960;6.220;2023-02-01T01:45:44;15.25;;;5.05;;
50267;SDS011;36153;50.960;6.220;2023-02-01T01:48:45;10.30;;;4.50;;
50267;SDS011;36153;50.960;6.220;2023-02-01T01:51:51;18.10;;;4.90;;
50267;SDS011;36153;50.960;6.220;2023-02-01T01:54:55;13.68;;;5.07;;
50267;SDS011;36153;50.960;6.220;2023-02-01T01:57:59;20.83;;;5.32;;
50267;SDS011;36153;50.960;6.220;2023-02-01T02:01:05;13.45;;;4.88;;
50267;SDS011;36153;50.960;6.220;2023-02-01T02:04:06;12.27;;;4.97;;
50267;SDS011;36153;50.960;6.220;2023-02-01T02:07:10;15.32;;;5.03;;
50267;SDS011;36153;50.960;6.220;2023-02-01T02:10:17;15.45;;;4.57;;
50267;SDS011;36153;50.960;6.220;2023-02-01T02:13:18;13.75;;;4.50;;
50267;SDS011;36153;50.960;6.220;2023-02-01T02:16:39;15.90;;;5.35;;
50267;SDS011;36153;50.960;6.220;2023-02-01T02:27:04;12.52;;;4.07;;
50267;SDS011;36153;50.960;6.220;2023-02-01T02:37:04;14.48;;;4.55;;
50267;SDS011;36153;50.960;6.220;2023-02-01T02:40:07;21.33;;;3.72;;
50267;SDS011;36153;50.960;6.220;2023-02-01T02:43:22;15.70;;;4.55;;
50267;SDS011;36153;50.960;6.220;2023-02-01T02:46:49;19.27;;;3.65;;
50267;SDS011;36153;50.960;6.220;2023-02-01T02:54:00;17.15;;;3.90;;
50267;SDS011;36153;50.960;6.220;2023-02-01T03:00:54;14.43;;;3.60;;
50267;SDS011;36153;50.960;6.220;2023-02-01T03:04:13;11.85;;;3.25;;
50267;SDS011;36153;50.960;6.220;2023-02-01T03:10:56;12.07;;;2.75;;
50267;SDS011;36153;50.960;6.220;2023-02-01T03:14:05;8.10;;;2.65;;
50267;SDS011;36153;50.960;6.220;2023-02-01T03:17:13;11.93;;;2.80;;
50267;SDS011;36153;50.960;6.220;2023-02-01T03:20:17;14.27;;;3.03;;
50267;SDS011;36153;50.960;6.220;2023-02-01T03:23:20;14.98;;;3.28;;
50267;SDS011;36153;50.960;6.220;2023-02-01T03:26:23;9.70;;;3.03;;
50267;SDS011;36153;50.960;6.220;2023-02-01T03:29:29;15.13;;;3.30;;
50267;SDS011;36153;50.960;6.220;2023-02-01T03:32:37;12.63;;;3.35;;
50267;SDS011;36153;50.960;6.220;2023-02-01T03:36:20;12.68;;;3.00;;
50267;SDS011;36153;50.960;6.220;2023-02-01T03:43:02;17.13;;;2.67;;
50267;SDS011;36153;50.960;6.220;2023-02-01T03:46:09;15.30;;;3.42;;
50267;SDS011;36153;50.960;6.220;2023-02-01T03:49:18;11.05;;;2.58;;
50267;SDS011;36153;50.960;6.220;2023-02-01T03:52:25;16.63;;;3.10;;
50267;SDS011;36153;50.960;6.220;2023-02-01T03:55:30;16.83;;;2.90;;
50267;SDS011;36153;50.960;6.220;2023-02-01T03:58:32;10.23;;;2.83;;
50267;SDS011;36153;50.960;6.220;2023-02-01T04:01:32;16.50;;;2.65;;
50267;SDS011;36153;50.960;6.220;2023-02-01T04:04:33;7.70;;;2.45;;
50267;SDS011;36153;50.960;6.220;2023-02-01T04:07:34;12.50;;;2.63;;
50267;SDS011;36153;50.960;6.220;2023-02-01T04:10:34;17.15;;;2.50;;
50267;SDS011;36153;50.960;6.220;2023-02-01T04:13:35;9.45;;;2.92;;
50267;SDS011;36153;50.960;6.220;2023-02-01T04:16:35;7.32;;;1.67;;
50267;SDS011;36153;50.960;6.220;2023-02-01T04:19:35;19.67;;;2.70;;
50267;SDS011;36153;50.960;6.220;2023-02-01T04:22:36;9.82;;;1.80;;
50267;SDS011;36153;50.960;6.220;2023-02-01T04:25:36;15.82;;;2.45;;
50267;SDS011;36153;50.960;6.220;2023-02-01T04:28:36;11.40;;;1.88;;
50267;SDS011;36153;50.960;6.220;2023-02-01T04:31:37;12.57;;;1.58;;
50267;SDS011;36153;50.960;6.220;2023-02-01T04:34:37;11.38;;;1.92;;
50267;SDS011;36153;50.960;6.220;2023-02-01T04:37:37;8.35;;;1.70;;
50267;SDS011;36153;50.960;6.220;2023-02-01T04:40:38;14.70;;;1.70;;
50267;SDS011;36153;50.960;6.220;2023-02-01T04:43:38;5.30;;;1.30;;
50267;SDS011;36153;50.960;6.220;2023-02-01T04:46:39;11.98;;;1.50;;
50267;SDS011;36153;50.960;6.220;2023-02-01T04:49:39;11.40;;;2.47;;
50267;SDS011;36153;50.960;6.220;2023-02-01T04:52:39;13.02;;;2.50;;
50267;SDS011;36153;50.960;6.220;2023-02-01T04:55:41;6.60;;;1.60;;
50267;SDS011;36153;50.960;6.220;2023-02-01T04:58:42;11.98;;;2.20;;
50267;SDS011;36153;50.960;6.220;2023-02-01T05:01:42;16.00;;;2.13;;
50267;SDS011;36153;50.960;6.220;2023-02-01T05:04:43;8.73;;;1.52;;
50267;SDS011;36153;50.960;6.220;2023-02-01T05:07:43;16.65;;;1.70;;
50267;SDS011;36153;50.960;6.220;2023-02-01T05:10:46;13.60;;;2.05;;
50267;SDS011;36153;50.960;6.220;2023-02-01T05:13:47;8.00;;;1.52;;
50267;SDS011;36153;50.960;6.220;2023-02-01T05:16:50;19.38;;;2.10;;
50267;SDS011;36153;50.960;6.220;2023-02-01T05:19:50;11.77;;;1.42;;
50267;SDS011;36153;50.960;6.220;2023-02-01T05:22:51;15.35;;;1.60;;
50267;SDS011;36153;50.960;6.220;2023-02-01T05:25:51;9.48;;;1.65;;
50267;SDS011;36153;50.960;6.220;2023-02-01T05:28:52;10.38;;;1.70;;
50267;SDS011;36153;50.960;6.220;2023-02-01T05:31:52;5.88;;;1.30;;
50267;SDS011;36153;50.960;6.220;2023-02-01T05:34:52;10.43;;;1.20;;
50267;SDS011;36153;50.960;6.220;2023-02-01T05:37:53;15.55;;;1.90;;
50267;SDS011;36153;50.960;6.220;2023-02-01T05:40:53;9.93;;;1.50;;
50267;SDS011;36153;50.960;6.220;2023-02-01T05:43:53;16.27;;;1.92;;
50267;SDS011;36153;50.960;6.220;2023-02-01T05:46:54;10.55;;;1.95;;
50267;SDS011;36153;50.960;6.220;2023-02-01T05:49:55;12.00;;;1.63;;
50267;SDS011;36153;50.960;6.220;2023-02-01T05:52:56;10.50;;;1.70;;
50267;SDS011;36153;50.960;6.220;2023-02-01T05:55:56;11.25;;;1.50;;
50267;SDS011;36153;50.960;6.220;2023-02-01T05:58:56;11.73;;;2.28;;
50267;SDS011;36153;50.960;6.220;2023-02-01T06:01:57;8.43;;;2.33;;
50267;SDS011;36153;50.960;6.220;2023-02-01T06:04:57;12.40;;;1.60;;
50267;SDS011;36153;50.960;6.220;2023-02-01T06:07:57;9.68;;;1.88;;
50267;SDS011;36153;50.960;6.220;2023-02-01T06:10:59;8.48;;;1.88;;
50267;SDS011;36153;50.960;6.220;2023-02-01T06:13:59;14.15;;;2.15;;
50267;SDS011;36153;50.960;6.220;2023-02-01T06:17:00;11.45;;;2.08;;
50267;SDS011;36153;50.960;6.220;2023-02-01T06:20:00;11.30;;;1.70;;
50267;SDS011;36153;50.960;6.220;2023-02-01T06:23:01;17.35;;;1.83;;
50267;SDS011;36153;50.960;6.220;2023-02-01T06:26:03;9.07;;;1.95;;
50267;SDS011;36153;50.960;6.220;2023-02-01T06:29:09;4.63;;;1.13;;
50267;SDS011;36153;50.960;6.220;2023-02-01T06:32:10;9.00;;;1.60;;
50267;SDS011;36153;50.960;6.220;2023-02-01T06:35:10;15.52;;;2.38;;
50267;SDS011;36153;50.960;6.220;2023-02-01T06:38:15;13.55;;;2.45;;
50267;SDS011;36153;50.960;6.220;2023-02-01T06:41:16;4.97;;;1.25;;
50267;SDS011;36153;50.960;6.220;2023-02-01T06:44:16;11.70;;;1.98;;
50267;SDS011;36153;50.960;6.220;2023-02-01T06:47:17;10.07;;;1.80;;
50267;SDS011;36153;50.960;6.220;2023-02-01T06:50:17;9.18;;;1.33;;
50267;SDS011;36153;50.960;6.220;2023-02-01T06:53:17;15.23;;;1.90;;
50267;SDS011;36153;50.960;6.220;2023-02-01T06:56:18;6.68;;;1.20;;
50267;SDS011;36153;50.960;6.220;2023-02-01T06:59:18;9.15;;;1.38;;
50267;SDS011;36153;50.960;6.220;2023-02-01T07:02:19;7.13;;;1.85;;
50267;SDS011;36153;50.960;6.220;2023-02-01T07:05:19;5.35;;;1.35;;
50267;SDS011;36153;50.960;6.220;2023-02-01T07:08:19;14.93;;;1.50;;
50267;SDS011;36153;50.960;6.220;2023-02-01T07:11:20;8.75;;;1.20;;
50267;SDS011;36153;50.960;6.220;2023-02-01T07:14:20;20.80;;;1.95;;
50267;SDS011;36153;50.960;6.220;2023-02-01T07:17:21;6.85;;;1.27;;
50267;SDS011;36153;50.960;6.220;2023-02-01T07:20:21;11.13;;;3.25;;
50267;SDS011;36153;50.960;6.220;2023-02-01T07:23:22;13.45;;;1.80;;
50267;SDS011;36153;50.960;6.220;2023-02-01T07:26:23;14.48;;;1.40;;
50267;SDS011;36153;50.960;6.220;2023-02-01T07:29:24;4.03;;;0.88;;
50267;SDS011;36153;50.960;6.220;2023-02-01T07:32:24;10.77;;;1.77;;
50267;SDS011;36153;50.960;6.220;2023-02-01T07:35:24;5.97;;;1.52;;
50267;SDS011;36153;50.960;6.220;2023-02-01T07:38:25;7.43;;;1.48;;
50267;SDS011;36153;50.960;6.220;2023-02-01T07:41:25;10.55;;;1.77;;
50267;SDS011;36153;50.960;6.220;2023-02-01T07:44:26;10.00;;;1.70;;
50267;SDS011;36153;50.960;6.220;2023-02-01T07:47:26;23.70;;;1.70;;
50267;SDS011;36153;50.960;6.220;2023-02-01T07:50:26;7.90;;;1.88;;
50267;SDS011;36153;50.960;6.220;2023-02-01T07:53:28;11.60;;;1.77;;
50267;SDS011;36153;50.960;6.220;2023-02-01T07:56:29;12.30;;;1.85;;
50267;SDS011;36153;50.960;6.220;2023-02-01T07:59:29;11.75;;;1.75;;
50267;SDS011;36153;50.960;6.220;2023-02-01T08:02:30;4.47;;;1.38;;
50267;SDS011;36153;50.960;6.220;2023-02-01T08:05:31;10.68;;;1.63;;
50267;SDS011;36153;50.960;6.220;2023-02-01T08:08:31;12.32;;;1.52;;
50267;SDS011;36153;50.960;6.220;2023-02-01T08:11:32;6.38;;;1.77;;
50267;SDS011;36153;50.960;6.220;2023-02-01T08:14:32;13.50;;;1.75;;
50267;SDS011;36153;50.960;6.220;2023-02-01T08:17:33;16.05;;;2.30;;
50267;SDS011;36153;50.960;6.220;2023-02-01T08:20:33;11.52;;;1.55;;
50267;SDS011;36153;50.960;6.220;2023-02-01T08:23:36;7.32;;;1.30;;
50267;SDS011;36153;50.960;6.220;2023-02-01T08:26:37;9.38;;;1.52;;
50267;SDS011;36153;50.960;6.220;2023-02-01T08:29:37;7.30;;;1.23;;
50267;SDS011;36153;50.960;6.220;2023-02-01T08:32:38;5.00;;;1.45;;
50267;SDS011;36153;50.960;6.220;2023-02-01T08:35:38;6.57;;;1.90;;
50267;SDS011;36153;50.960;6.220;2023-02-01T08:38:39;16.70;;;1.90;;
50267;SDS011;36153;50.960;6.220;2023-02-01T08:41:40;6.43;;;1.20;;
50267;SDS011;36153;50.960;6.220;2023-02-01T08:44:42;7.72;;;1.20;;
50267;SDS011;36153;50.960;6.220;2023-02-01T08:47:42;16.00;;;2.45;;
50267;SDS011;36153;50.960;6.220;2023-02-01T08:50:43;8.85;;;1.48;;
50267;SDS011;36153;50.960;6.220;2023-02-01T08:53:43;10.52;;;1.67;;
50267;SDS011;36153;50.960;6.220;2023-02-01T08:56:44;15.65;;;1.63;;
50267;SDS011;36153;50.960;6.220;2023-02-01T08:59:44;7.75;;;0.98;;
50267;SDS011;36153;50.960;6.220;2023-02-01T09:02:45;11.13;;;1.58;;
50267;SDS011;36153;50.960;6.220;2023-02-01T09:05:45;13.55;;;1.77;;
50267;SDS011;36153;50.960;6.220;2023-02-01T09:08:45;15.90;;;2.88;;
50267;SDS011;36153;50.960;6.220;2023-02-01T09:11:46;14.85;;;1.50;;
50267;SDS011;36153;50.960;6.220;2023-02-01T09:14:46;8.20;;;1.30;;
50267;SDS011;36153;50.960;6.220;2023-02-01T09:17:46;14.57;;;2.42;;
50267;SDS011;36153;50.960;6.220;2023-02-01T09:20:47;16.10;;;1.67;;
50267;SDS011;36153;50.960;6.220;2023-02-01T09:23:47;8.32;;;1.85;;
50267;SDS011;36153;50.960;6.220;2023-02-01T09:26:48;12.43;;;1.95;;
50267;SDS011;36153;50.960;6.220;2023-02-01T09:29:49;11.02;;;1.98;;
50267;SDS011;36153;50.960;6.220;2023-02-01T09:32:52;16.92;;;1.63;;
50267;SDS011;36153;50.960;6.220;2023-02-01T09:35:56;18.00;;;1.70;;
50267;SDS011;36153;50.960;6.220;2023-02-01T09:38:58;9.77;;;1.85;;
50267;SDS011;36153;50.960;6.220;2023-02-01T09:42:02;7.70;;;1.63;;
50267;SDS011;36153;50.960;6.220;2023-02-01T09:45:42;15.80;;;2.35;;
50267;SDS011;36153;50.960;6.220;2023-02-01T09:48:58;13.00;;;1.63;;
50267;SDS011;36153;50.960;6.220;2023-02-01T09:55:30;18.58;;;1.88;;
50267;SDS011;36153;50.960;6.220;2023-02-01T09:58:38;7.30;;;1.33;;
50267;SDS011;36153;50.960;6.220;2023-02-01T10:02:01;21.23;;;1.73;;
50267;SDS011;36153;50.960;6.220;2023-02-01T10:05:03;9.23;;;1.90;;
50267;SDS011;36153;50.960;6.220;2023-02-01T10:08:04;9.38;;;1.75;;
50267;SDS011;36153;50.960;6.220;2023-02-01T10:11:32;9.57;;;1.98;;
50267;SDS011;36153;50.960;6.220;2023-02-01T10:21:40;9.88;;;1.63;;
50267;SDS011;36153;50.960;6.220;2023-02-01T10:24:52;12.10;;;2.08;;
50267;SDS011;36153;50.960;6.220;2023-02-01T10:28:04;14.43;;;2.35;;
50267;SDS011;36153;50.960;6.220;2023-02-01T10:31:05;9.98;;;1.30;;
50267;SDS011;36153;50.960;6.220;2023-02-01T10:34:22;20.33;;;2.25;;
50267;SDS011;36153;50.960;6.220;2023-02-01T10:37:27;21.50;;;2.20;;
50267;SDS011;36153;50.960;6.220;2023-02-01T10:40:31;12.68;;;2.10;;
50267;SDS011;36153;50.960;6.220;2023-02-01T10:43:31;22.48;;;2.65;;
50267;SDS011;36153;50.960;6.220;2023-02-01T10:46:33;9.10;;;1.42;;
50267;SDS011;36153;50.960;6.220;2023-02-01T10:49:38;17.23;;;1.58;;
50267;SDS011;36153;50.960;6.220;2023-02-01T10:52:52;19.65;;;2.65;;
50267;SDS011;36153;50.960;6.220;2023-02-01T10:55:58;8.27;;;1.52;;
50267;SDS011;36153;50.960;6.220;2023-02-01T10:59:18;7.82;;;1.98;;
50267;SDS011;36153;50.960;6.220;2023-02-01T11:02:33;9.90;;;1.75;;
50267;SDS011;36153;50.960;6.220;2023-02-01T11:05:43;19.23;;;2.15;;
50267;SDS011;36153;50.960;6.220;2023-02-01T11:08:49;14.00;;;2.83;;
50267;SDS011;36153;50.960;6.220;2023-02-01T11:11:53;10.70;;;1.75;;
50267;SDS011;36153;50.960;6.220;2023-02-01T11:15:15;10.15;;;2.28;;
50267;SDS011;36153;50.960;6.220;2023-02-01T11:18:21;8.60;;;2.00;;
50267;SDS011;36153;50.960;6.220;2023-02-01T11:21:29;12.07;;;2.25;;
50267;SDS011;36153;50.960;6.220;2023-02-01T11:24:31;13.68;;;2.33;;
50267;SDS011;36153;50.960;6.220;2023-02-01T11:27:34;16.10;;;2.92;;
50267;SDS011;36153;50.960;6.220;2023-02-01T11:30:36;12.45;;;2.15;;
50267;SDS011;36153;50.960;6.220;2023-02-01T11:33:44;17.52;;;2.42;;
50267;SDS011;36153;50.960;6.220;2023-02-01T11:36:49;12.77;;;2.72;;
50267;SDS011;36153;50.960;6.220;2023-02-01T11:39:54;16.95;;;1.95;;
50267;SDS011;36153;50.960;6.220;2023-02-01T11:42:56;10.95;;;1.92;;
50267;SDS011;36153;50.960;6.220;2023-02-01T11:46:08;12.43;;;2.40;;
50267;SDS011;36153;50.960;6.220;2023-02-01T11:49:23;11.70;;;1.83;;
50267;SDS011;36153;50.960;6.220;2023-02-01T11:52:36;11.32;;;1.98;;
50267;SDS011;36153;50.960;6.220;2023-02-01T12:05:36;8.65;;;2.10;;
50267;SDS011;36153;50.960;6.220;2023-02-01T12:08:54;9.50;;;2.17;;
50267;SDS011;36153;50.960;6.220;2023-02-01T12:12:34;16.98;;;2.20;;
50267;SDS011;36153;50.960;6.220;2023-02-01T12:29:18;7.90;;;1.02;;
50267;SDS011;36153;50.960;6.220;2023-02-01T12:32:37;8.80;;;1.60;;
50267;SDS011;36153;50.960;6.220;2023-02-01T12:35:53;11.27;;;1.90;;
50267;SDS011;36153;50.960;6.220;2023-02-01T12:39:24;13.73;;;2.10;;
50267;SDS011;36153;50.960;6.220;2023-02-01T12:42:34;12.30;;;2.13;;
50267;SDS011;36153;50.960;6.220;2023-02-01T12:45:40;24.95;;;2.83;;
50267;SDS011;36153;50.960;6.220;2023-02-01T12:49:01;11.43;;;1.65;;
50267;SDS011;36153;50.960;6.220;2023-02-01T12:52:10;15.70;;;2.47;;
50267;SDS011;36153;50.960;6.220;2023-02-01T12:55:16;5.55;;;1.27;;
50267;SDS011;36153;50.960;6.220;2023-02-01T12:58:24;8.57;;;1.58;;
50267;SDS011;36153;50.960;6.220;2023-02-01T13:01:30;10.50;;;1.38;;
50267;SDS011;36153;50.960;6.220;2023-02-01T13:05:40;8.82;;;1.77;;
50267;SDS011;36153;50.960;6.220;2023-02-01T13:08:19;10.85;;;1.73;;
50267;SDS011;36153;50.960;6.220;2023-02-01T13:11:26;9.38;;;1.65;;
50267;SDS011;36153;50.960;6.220;2023-02-01T13:17:46;7.90;;;1.88;;
50267;SDS011;36153;50.960;6.220;2023-02-01T13:20:58;12.35;;;1.40;;
50267;SDS011;36153;50.960;6.220;2023-02-01T13:24:03;8.57;;;1.25;;
50267;SDS011;36153;50.960;6.220;2023-02-01T13:27:04;19.23;;;2.22;;
50267;SDS011;36153;50.960;6.220;2023-02-01T13:33:27;9.80;;;1.88;;
50267;SDS011;36153;50.960;6.220;2023-02-01T13:43:26;7.33;;;0.90;;
50267;SDS011;36153;50.960;6.220;2023-02-01T13:46:29;7.80;;;1.30;;
50267;SDS011;36153;50.960;6.220;2023-02-01T13:49:31;8.55;;;1.30;;
50267;SDS011;36153;50.960;6.220;2023-02-01T13:52:39;7.30;;;1.20;;
50267;SDS011;36153;50.960;6.220;2023-02-01T13:55:45;8.15;;;1.48;;
50267;SDS011;36153;50.960;6.220;2023-02-01T13:58:54;12.60;;;1.67;;
50267;SDS011;36153;50.960;6.220;2023-02-01T14:01:54;9.60;;;1.20;;
50267;SDS011;36153;50.960;6.220;2023-02-01T14:04:54;8.40;;;1.55;;
50267;SDS011;36153;50.960;6.220;2023-02-01T14:11:04;8.45;;;1.50;;
50267;SDS011;36153;50.960;6.220;2023-02-01T14:17:29;10.63;;;1.58;;
50267;SDS011;36153;50.960;6.220;2023-02-01T14:20:40;6.80;;;1.13;;
50267;SDS011;36153;50.960;6.220;2023-02-01T14:23:44;14.48;;;1.63;;
50267;SDS011;36153;50.960;6.220;2023-02-01T14:26:47;10.52;;;2.17;;
50267;SDS011;36153;50.960;6.220;2023-02-01T14:29:50;18.92;;;2.20;;
50267;SDS011;36153;50.960;6.220;2023-02-01T14:32:57;10.82;;;1.70;;
50267;SDS011;36153;50.960;6.220;2023-02-01T14:36:01;7.47;;;1.42;;
50267;SDS011;36153;50.960;6.220;2023-02-01T14:39:17;9.77;;;1.60;;
50267;SDS011;36153;50.960;6.220;2023-02-01T14:42:22;8.32;;;1.77;;
50267;SDS011;36153;50.960;6.220;2023-02-01T14:45:46;11.45;;;1.38;;
50267;SDS011;36153;50.960;6.220;2023-02-01T14:48:50;3.53;;;1.00;;
50267;SDS011;36153;50.960;6.220;2023-02-01T14:51:51;7.18;;;1.08;;
50267;SDS011;36153;50.960;6.220;2023-02-01T14:54:54;11.30;;;1.38;;
50267;SDS011;36153;50.960;6.220;2023-02-01T14:57:57;15.90;;;1.70;;
50267;SDS011;36153;50.960;6.220;2023-02-01T15:01:05;10.35;;;1.48;;
50267;SDS011;36153;50.960;6.220;2023-02-01T15:04:27;9.10;;;1.60;;
50267;SDS011;36153;50.960;6.220;2023-02-01T15:07:27;5.78;;;1.70;;
50267;SDS011;36153;50.960;6.220;2023-02-01T15:10:30;5.43;;;1.45;;
50267;SDS011;36153;50.960;6.220;2023-02-01T15:13:33;13.60;;;1.83;;
50267;SDS011;36153;50.960;6.220;2023-02-01T15:16:33;9.45;;;1.33;;
50267;SDS011;36153;50.960;6.220;2023-02-01T15:19:33;11.20;;;1.42;;
50267;SDS011;36153;50.960;6.220;2023-02-01T15:22:34;10.80;;;1.35;;
50267;SDS011;36153;50.960;6.220;2023-02-01T15:25:35;6.68;;;1.77;;
50267;SDS011;36153;50.960;6.220;2023-02-01T15:28:38;5.05;;;0.95;;
50267;SDS011;36153;50.960;6.220;2023-02-01T15:31:39;8.13;;;1.50;;
50267;SDS011;36153;50.960;6.220;2023-02-01T15:34:46;5.10;;;1.25;;
50267;SDS011;36153;50.960;6.220;2023-02-01T15:37:47;11.57;;;1.73;;
50267;SDS011;36153;50.960;6.220;2023-02-01T15:47:41;7.07;;;1.23;;
50267;SDS011;36153;50.960;6.220;2023-02-01T15:50:46;6.00;;;0.80;;
50267;SDS011;36153;50.960;6.220;2023-02-01T15:56:58;11.23;;;2.28;;
50267;SDS011;36153;50.960;6.220;2023-02-01T16:00:02;9.35;;;1.40;;
50267;SDS011;36153;50.960;6.220;2023-02-01T16:03:25;11.93;;;1.60;;
50267;SDS011;36153;50.960;6.220;2023-02-01T16:06:27;8.23;;;1.38;;
50267;SDS011;36153;50.960;6.220;2023-02-01T16:09:37;10.15;;;1.52;;
50267;SDS011;36153;50.960;6.220;2023-02-01T16:12:54;14.32;;;1.48;;
50267;SDS011;36153;50.960;6.220;2023-02-01T16:15:58;7.85;;;1.27;;
50267;SDS011;36153;50.960;6.220;2023-02-01T16:18:59;10.70;;;1.60;;
50267;SDS011;36153;50.960;6.220;2023-02-01T16:21:59;6.63;;;1.33;;
50267;SDS011;36153;50.960;6.220;2023-02-01T16:25:00;7.93;;;1.42;;
50267;SDS011;36153;50.960;6.220;2023-02-01T16:28:01;10.15;;;1.60;;
50267;SDS011;36153;50.960;6.220;2023-02-01T16:31:02;4.88;;;1.35;;
50267;SDS011;36153;50.960;6.220;2023-02-01T16:34:03;9.93;;;1.75;;
50267;SDS011;36153;50.960;6.220;2023-02-01T16:37:03;13.15;;;1.38;;
50267;SDS011;36153;50.960;6.220;2023-02-01T16:40:04;9.10;;;1.63;;
50267;SDS011;36153;50.960;6.220;2023-02-01T16:43:10;12.38;;;2.35;;
50267;SDS011;36153;50.960;6.220;2023-02-01T16:46:20;15.60;;;1.58;;
50267;SDS011;36153;50.960;6.220;2023-02-01T16:49:24;9.35;;;2.25;;
50267;SDS011;36153;50.960;6.220;2023-02-01T16:52:25;7.53;;;1.30;;
50267;SDS011;36153;50.960;6.220;2023-02-01T16:55:26;8.13;;;1.42;;
50267;SDS011;36153;50.960;6.220;2023-02-01T16:58:27;10.00;;;1.73;;
50267;SDS011;36153;50.960;6.220;2023-02-01T17:01:28;15.23;;;1.75;;
50267;SDS011;36153;50.960;6.220;2023-02-01T17:04:28;9.23;;;2.15;;
50267;SDS011;36153;50.960;6.220;2023-02-01T17:07:29;19.80;;;2.88;;
50267;SDS011;36153;50.960;6.220;2023-02-01T17:10:29;10.43;;;2.05;;
50267;SDS011;36153;50.960;6.220;2023-02-01T17:13:30;13.52;;;3.00;;
50267;SDS011;36153;50.960;6.220;2023-02-01T17:16:31;7.50;;;2.28;;
50267;SDS011;36153;50.960;6.220;2023-02-01T17:19:32;10.75;;;2.22;;
50267;SDS011;36153;50.960;6.220;2023-02-01T17:22:32;10.77;;;2.47;;
50267;SDS011;36153;50.960;6.220;2023-02-01T17:25:33;8.68;;;2.33;;
50267;SDS011;36153;50.960;6.220;2023-02-01T17:28:33;12.27;;;2.03;;
50267;SDS011;36153;50.960;6.220;2023-02-01T17:31:38;9.20;;;1.75;;
50267;SDS011;36153;50.960;6.220;2023-02-01T17:34:40;8.38;;;1.45;;
50267;SDS011;36153;50.960;6.220;2023-02-01T17:37:41;10.90;;;1.92;;
50267;SDS011;36153;50.960;6.220;2023-02-01T17:40:41;10.35;;;3.08;;
50267;SDS011;36153;50.960;6.220;2023-02-01T17:43:42;10.95;;;2.40;;
50267;SDS011;36153;50.960;6.220;2023-02-01T17:46:42;10.82;;;1.85;;
50267;SDS011;36153;50.960;6.220;2023-02-01T17:49:43;11.35;;;1.90;;
50267;SDS011;36153;50.960;6.220;2023-02-01T17:52:43;12.32;;;2.22;;
50267;SDS011;36153;50.960;6.220;2023-02-01T17:55:44;12.23;;;1.50;;
50267;SDS011;36153;50.960;6.220;2023-02-01T17:58:48;11.35;;;2.30;;
50267;SDS011;36153;50.960;6.220;2023-02-01T18:01:48;5.22;;;1.20;;
50267;SDS011;36153;50.960;6.220;2023-02-01T18:04:49;15.05;;;1.77;;
50267;SDS011;36153;50.960;6.220;2023-02-01T18:07:50;11.88;;;2.05;;
50267;SDS011;36153;50.960;6.220;2023-02-01T18:10:55;8.68;;;1.48;;
50267;SDS011;36153;50.960;6.220;2023-02-01T18:14:00;5.45;;;1.30;;
50267;SDS011;36153;50.960;6.220;2023-02-01T18:17:01;7.28;;;1.90;;
50267;SDS011;36153;50.960;6.220;2023-02-01T18:20:01;7.38;;;2.13;;
50267;SDS011;36153;50.960;6.220;2023-02-01T18:23:01;7.38;;;1.30;;
50267;SDS011;36153;50.960;6.220;2023-02-01T18:26:02;11.05;;;1.92;;
50267;SDS011;36153;50.960;6.220;2023-02-01T18:29:03;15.55;;;2.08;;
50267;SDS011;36153;50.960;6.220;2023-02-01T18:32:03;11.38;;;2.55;;
50267;SDS011;36153;50.960;6.220;2023-02-01T18:35:37;9.40;;;2.15;;
50267;SDS011;36153;50.960;6.220;2023-02-01T18:38:31;11.18;;;1.90;;
50267;SDS011;36153;50.960;6.220;2023-02-01T18:41:52;11.52;;;1.70;;
50267;SDS011;36153;50.960;6.220;2023-02-01T18:44:52;18.50;;;2.00;;
50267;SDS011;36153;50.960;6.220;2023-02-01T18:47:53;9.45;;;2.45;;
50267;SDS011;36153;50.960;6.220;2023-02-01T18:50:53;11.10;;;1.70;;
50267;SDS011;36153;50.960;6.220;2023-02-01T18:53:56;15.80;;;2.13;;
50267;SDS011;36153;50.960;6.220;2023-02-01T18:56:57;12.30;;;2.70;;
50267;SDS011;36153;50.960;6.220;2023-02-01T18:59:57;10.50;;;2.05;;
50267;SDS011;36153;50.960;6.220;2023-02-01T19:02:57;8.70;;;1.88;;
50267;SDS011;36153;50.960;6.220;2023-02-01T19:05:58;9.50;;;2.17;;
50267;SDS011;36153;50.960;6.220;2023-02-01T19:08:58;8.95;;;2.38;;
50267;SDS011;36153;50.960;6.220;2023-02-01T19:11:59;14.88;;;1.60;;
50267;SDS011;36153;50.960;6.220;2023-02-01T19:14:59;12.85;;;2.17;;
50267;SDS011;36153;50.960;6.220;2023-02-01T19:18:00;10.57;;;1.60;;
50267;SDS011;36153;50.960;6.220;2023-02-01T19:21:04;12.00;;;2.45;;
50267;SDS011;36153;50.960;6.220;2023-02-01T19:24:06;6.97;;;1.40;;
50267;SDS011;36153;50.960;6.220;2023-02-01T19:27:06;13.95;;;1.63;;
50267;SDS011;36153;50.960;6.220;2023-02-01T19:30:09;6.72;;;1.73;;
50267;SDS011;36153;50.960;6.220;2023-02-01T19:33:10;8.40;;;1.55;;
50267;SDS011;36153;50.960;6.220;2023-02-01T19:36:11;14.85;;;1.67;;
50267;SDS011;36153;50.960;6.220;2023-02-01T19:39:11;11.75;;;1.83;;
50267;SDS011;36153;50.960;6.220;2023-02-01T19:42:11;12.65;;;2.13;;
50267;SDS011;36153;50.960;6.220;2023-02-01T19:45:13;10.55;;;1.95;;
50267;SDS011;36153;50.960;6.220;2023-02-01T19:48:13;14.70;;;2.40;;
50267;SDS011;36153;50.960;6.220;2023-02-01T19:51:14;7.32;;;1.80;;